sensor_id;sensor_type;location;lat;lon;timestamp;pressure;altitude;pressure_sealevel;temperature;humidity
24031;BME280;12240;51.142;22.486;2022-12-07T00:01:46;98711.66;;;2.06;100.00
24031;BME280;12240;51.142;22.486;2022-12-07T00:04:17;98759.81;;;2.28;100.00
24031;BME280;12240;51.142;22.486;2022-12-07T00:06:50;98746.06;;;2.25;100.00
24031;BME280;12240;51.142;22.486;2022-12-07T00:09:20;98754.31;;;2.31;100.00
24031;BME280;12240;51.142;22.486;2022-12-07T00:11:52;98697.66;;;2.05;100.00
24031;BME280;12240;51.142;22.486;2022-12-07T00:14:20;98722.44;;;2.25;100.00
24031;BME280;12240;51.142;22.486;2022-12-07T00:16:50;98745.97;;;2.37;100.00
24031;BME280;12240;51.142;22.486;2022-12-07T00:19:19;98735.22;;;2.29;100.00
24031;BME280;12240;51.142;22.486;2022-12-07T00:21:47;98752.91;;;2.38;100.00
24031;BME280;12240;51.142;22.486;2022-12-07T00:24:15;98754.69;;;2.38;100.00
24031;BME280;12240;51.142;22.486;2022-12-07T00:26:43;98745.97;;;2.37;100.00
24031;BME280;12240;51.142;22.486;2022-12-07T00:29:20;98748.50;;;2.39;100.00
24031;BME280;12240;51.142;22.486;2022-12-07T00:31:48;98746.81;;;2.38;100.00
24031;BME280;12240;51.142;22.486;2022-12-07T00:34:21;98748.50;;;2.39;100.00
24031;BME280;12240;51.142;22.486;2022-12-07T00:36:49;98740.34;;;2.31;100.00
24031;BME280;12240;51.142;22.486;2022-12-07T00:39:18;98747.78;;;2.37;100.00
24031;BME280;12240;51.142;22.486;2022-12-07T00:41:46;98751.13;;;2.39;100.00
24031;BME280;12240;51.142;22.486;2022-12-07T00:44:14;98753.75;;;2.39;100.00
24031;BME280;12240;51.142;22.486;2022-12-07T00:46:42;98751.22;;;2.37;100.00
24031;BME280;12240;51.142;22.486;2022-12-07T00:49:10;98751.44;;;2.34;100.00
24031;BME280;12240;51.142;22.486;2022-12-07T00:51:38;98722.28;;;2.15;100.00
24031;BME280;12240;51.142;22.486;2022-12-07T00:54:06;98745.72;;;2.29;100.00
24031;BME280;12240;51.142;22.486;2022-12-07T00:56:34;98737.34;;;2.24;100.00
24031;BME280;12240;51.142;22.486;2022-12-07T00:59:03;98719.78;;;2.14;100.00
24031;BME280;12240;51.142;22.486;2022-12-07T01:01:35;98746.56;;;2.30;100.00
24031;BME280;12240;51.142;22.486;2022-12-07T01:04:05;98715.00;;;2.08;100.00
24031;BME280;12240;51.142;22.486;2022-12-07T01:06:33;98746.56;;;2.30;100.00
24031;BME280;12240;51.142;22.486;2022-12-07T01:09:02;98738.78;;;2.28;100.00
24031;BME280;12240;51.142;22.486;2022-12-07T01:11:32;98732.44;;;2.20;100.00
24031;BME280;12240;51.142;22.486;2022-12-07T01:14:01;98740.59;;;2.28;100.00
24031;BME280;12240;51.142;22.486;2022-12-07T01:16:31;98654.03;;;1.81;100.00
24031;BME280;12240;51.142;22.486;2022-12-07T01:19:00;98739.00;;;2.25;100.00
24031;BME280;12240;51.142;22.486;2022-12-07T01:21:35;98742.38;;;2.27;100.00
24031;BME280;12240;51.142;22.486;2022-12-07T01:24:09;98700.53;;;2.02;100.00
24031;BME280;12240;51.142;22.486;2022-12-07T01:26:38;98745.84;;;2.28;100.00
24031;BME280;12240;51.142;22.486;2022-12-07T01:29:06;98744.88;;;2.29;100.00
24031;BME280;12240;51.142;22.486;2022-12-07T01:31:34;98744.88;;;2.29;100.00
24031;BME280;12240;51.142;22.486;2022-12-07T01:34:02;98736.66;;;2.33;100.00
24031;BME280;12240;51.142;22.486;2022-12-07T01:36:34;98726.97;;;2.34;100.00
24031;BME280;12240;51.142;22.486;2022-12-07T01:39:06;98689.34;;;2.11;100.00
24031;BME280;12240;51.142;22.486;2022-12-07T01:41:37;98718.28;;;2.33;100.00
24031;BME280;12240;51.142;22.486;2022-12-07T01:44:29;98647.06;;;1.92;100.00
24031;BME280;12240;51.142;22.486;2022-12-07T01:47:03;98729.13;;;2.40;100.00
24031;BME280;12240;51.142;22.486;2022-12-07T01:52:29;98727.69;;;2.36;100.00
24031;BME280;12240;51.142;22.486;2022-12-07T01:55:04;98703.94;;;2.26;100.00
24031;BME280;12240;51.142;22.486;2022-12-07T01:57:37;98725.19;;;2.34;100.00
24031;BME280;12240;51.142;22.486;2022-12-07T02:00:09;98730.09;;;2.39;100.00
24031;BME280;12240;51.142;22.486;2022-12-07T02:05:35;98726.75;;;2.37;100.00
24031;BME280;12240;51.142;22.486;2022-12-07T02:08:05;98708.44;;;2.24;100.00
24031;BME280;12240;51.142;22.486;2022-12-07T02:10:33;98721.72;;;2.34;100.00
24031;BME280;12240;51.142;22.486;2022-12-07T02:24:31;98727.97;;;2.44;100.00
24031;BME280;12240;51.142;22.486;2022-12-07T02:33:11;98735.34;;;2.50;100.00
24031;BME280;12240;51.142;22.486;2022-12-07T02:35:56;98732.13;;;2.47;100.00
24031;BME280;12240;51.142;22.486;2022-12-07T02:38:38;98718.88;;;2.37;100.00
24031;BME280;12240;51.142;22.486;2022-12-07T02:41:13;98729.75;;;2.44;100.00
24031;BME280;12240;51.142;22.486;2022-12-07T02:43:55;98687.31;;;2.15;100.00
24031;BME280;12240;51.142;22.486;2022-12-07T02:46:35;98741.06;;;2.33;100.00
24031;BME280;12240;51.142;22.486;2022-12-07T02:49:05;98677.16;;;1.99;100.00
24031;BME280;12240;51.142;22.486;2022-12-07T02:51:43;98727.44;;;2.28;100.00
24031;BME280;12240;51.142;22.486;2022-12-07T02:54:18;98725.53;;;2.30;100.00
24031;BME280;12240;51.142;22.486;2022-12-07T02:57:23;98727.44;;;2.28;100.00
24031;BME280;12240;51.142;22.486;2022-12-07T03:00:11;98719.81;;;2.25;100.00
24031;BME280;12240;51.142;22.486;2022-12-07T03:03:04;98716.47;;;2.23;100.00
24031;BME280;12240;51.142;22.486;2022-12-07T03:11:14;98669.72;;;1.93;100.00
24031;BME280;12240;51.142;22.486;2022-12-07T03:14:11;98721.22;;;2.18;100.00
24031;BME280;12240;51.142;22.486;2022-12-07T03:19:20;98717.84;;;2.05;100.00
24031;BME280;12240;51.142;22.486;2022-12-07T03:21:58;98708.06;;;2.07;100.00
24031;BME280;12240;51.142;22.486;2022-12-07T03:24:34;98716.28;;;2.02;100.00
24031;BME280;12240;51.142;22.486;2022-12-07T03:27:55;98637.63;;;1.55;100.00
24031;BME280;12240;51.142;22.486;2022-12-07T03:30:20;98713.38;;;1.94;100.00
24031;BME280;12240;51.142;22.486;2022-12-07T03:35:31;98706.94;;;1.87;100.00
24031;BME280;12240;51.142;22.486;2022-12-07T03:41:00;98703.41;;;1.76;100.00
24031;BME280;12240;51.142;22.486;2022-12-07T03:43:29;98699.88;;;1.77;100.00
24031;BME280;12240;51.142;22.486;2022-12-07T03:52:33;98695.34;;;1.55;100.00
24031;BME280;12240;51.142;22.486;2022-12-07T03:55:24;98705.13;;;1.53;100.00
24031;BME280;12240;51.142;22.486;2022-12-07T03:58:04;98692.81;;;1.43;100.00
24031;BME280;12240;51.142;22.486;2022-12-07T04:00:33;98692.28;;;1.38;100.00
24031;BME280;12240;51.142;22.486;2022-12-07T04:03:02;98656.78;;;1.10;100.00
24031;BME280;12240;51.142;22.486;2022-12-07T04:05:30;98648.47;;;1.03;100.00
24031;BME280;12240;51.142;22.486;2022-12-07T04:07:58;98691.50;;;1.25;100.00
24031;BME280;12240;51.142;22.486;2022-12-07T04:10:26;98652.72;;;0.93;100.00
24031;BME280;12240;51.142;22.486;2022-12-07T04:12:55;98690.38;;;1.16;100.00
24031;BME280;12240;51.142;22.486;2022-12-07T04:15:23;98687.16;;;1.12;100.00
24031;BME280;12240;51.142;22.486;2022-12-07T04:17:51;98674.69;;;1.03;100.00
24031;BME280;12240;51.142;22.486;2022-12-07T04:20:20;98674.59;;;1.05;100.00
24031;BME280;12240;51.142;22.486;2022-12-07T04:22:48;98643.47;;;0.77;100.00
24031;BME280;12240;51.142;22.486;2022-12-07T04:25:16;98683.53;;;1.02;100.00
24031;BME280;12240;51.142;22.486;2022-12-07T04:27:44;98657.56;;;0.87;100.00
24031;BME280;12240;51.142;22.486;2022-12-07T04:30:12;98692.00;;;1.06;100.00
24031;BME280;12240;51.142;22.486;2022-12-07T04:32:40;98680.06;;;1.02;100.00
24031;BME280;12240;51.142;22.486;2022-12-07T04:35:08;98616.94;;;0.69;100.00
24031;BME280;12240;51.142;22.486;2022-12-07T04:37:36;98662.16;;;0.96;100.00
24031;BME280;12240;51.142;22.486;2022-12-07T04:40:08;98666.84;;;1.03;100.00
24031;BME280;12240;51.142;22.486;2022-12-07T04:42:38;98689.88;;;1.11;100.00
24031;BME280;12240;51.142;22.486;2022-12-07T04:45:07;98660.16;;;0.99;100.00
24031;BME280;12240;51.142;22.486;2022-12-07T04:47:35;98678.56;;;1.10;100.00
24031;BME280;12240;51.142;22.486;2022-12-07T04:50:04;98677.94;;;1.07;100.00
24031;BME280;12240;51.142;22.486;2022-12-07T04:52:33;98651.34;;;1.00;100.00
24031;BME280;12240;51.142;22.486;2022-12-07T04:55:00;98679.28;;;1.12;100.00
24031;BME280;12240;51.142;22.486;2022-12-07T04:57:29;98676.56;;;1.14;100.00
24031;BME280;12240;51.142;22.486;2022-12-07T04:59:56;98678.34;;;1.13;100.00
24031;BME280;12240;51.142;22.486;2022-12-07T05:02:24;98665.78;;;1.06;100.00
24031;BME280;12240;51.142;22.486;2022-12-07T05:04:53;98686.94;;;1.15;100.00
24031;BME280;12240;51.142;22.486;2022-12-07T05:07:21;98631.47;;;0.85;100.00
24031;BME280;12240;51.142;22.486;2022-12-07T05:09:48;98670.38;;;1.15;100.00
24031;BME280;12240;51.142;22.486;2022-12-07T05:12:16;98630.53;;;0.86;100.00
24031;BME280;12240;51.142;22.486;2022-12-07T05:14:44;98675.72;;;1.13;100.00
24031;BME280;12240;51.142;22.486;2022-12-07T05:17:12;98677.81;;;1.08;100.00
24031;BME280;12240;51.142;22.486;2022-12-07T05:19:40;98679.78;;;1.17;100.00
24031;BME280;12240;51.142;22.486;2022-12-07T05:22:08;98678.13;;;1.16;100.00
24031;BME280;12240;51.142;22.486;2022-12-07T05:24:37;98683.38;;;1.16;100.00
24031;BME280;12240;51.142;22.486;2022-12-07T05:27:05;98662.41;;;1.16;100.00
24031;BME280;12240;51.142;22.486;2022-12-07T05:29:33;98652.34;;;1.10;100.00
24031;BME280;12240;51.142;22.486;2022-12-07T05:32:01;98631.53;;;0.96;100.00
24031;BME280;12240;51.142;22.486;2022-12-07T05:34:29;98668.13;;;1.22;100.00
24031;BME280;12240;51.142;22.486;2022-12-07T05:36:57;98667.91;;;1.25;100.00
24031;BME280;12240;51.142;22.486;2022-12-07T05:39:25;98667.91;;;1.25;100.00
24031;BME280;12240;51.142;22.486;2022-12-07T05:41:52;98526.75;;;0.37;100.00
24031;BME280;12240;51.142;22.486;2022-12-07T05:44:44;98674.44;;;1.19;100.00
24031;BME280;12240;51.142;22.486;2022-12-07T05:47:14;98665.53;;;1.22;100.00
24031;BME280;12240;51.142;22.486;2022-12-07T05:49:42;98664.56;;;1.23;100.00
24031;BME280;12240;51.142;22.486;2022-12-07T05:52:10;98658.69;;;1.19;100.00
24031;BME280;12240;51.142;22.486;2022-12-07T05:54:38;98548.66;;;0.36;100.00
24031;BME280;12240;51.142;22.486;2022-12-07T05:57:06;98679.84;;;1.29;100.00
24031;BME280;12240;51.142;22.486;2022-12-07T05:59:34;98683.91;;;1.33;100.00
24031;BME280;12240;51.142;22.486;2022-12-07T06:02:14;98684.66;;;1.35;100.00
24031;BME280;12240;51.142;22.486;2022-12-07T06:04:45;98643.75;;;1.08;100.00
24031;BME280;12240;51.142;22.486;2022-12-07T06:07:16;98635.38;;;1.03;100.00
24031;BME280;12240;51.142;22.486;2022-12-07T06:09:44;98636.22;;;1.04;100.00
24031;BME280;12240;51.142;22.486;2022-12-07T06:12:12;98692.50;;;1.35;100.00
24031;BME280;12240;51.142;22.486;2022-12-07T06:14:59;98640.63;;;1.03;100.00
24031;BME280;12240;51.142;22.486;2022-12-07T06:17:27;98688.53;;;1.29;100.00
24031;BME280;12240;51.142;22.486;2022-12-07T06:19:55;98692.13;;;1.28;100.00
24031;BME280;12240;51.142;22.486;2022-12-07T06:22:23;98676.25;;;1.18;100.00
24031;BME280;12240;51.142;22.486;2022-12-07T06:24:51;98689.97;;;1.22;100.00
24031;BME280;12240;51.142;22.486;2022-12-07T06:27:19;98691.00;;;1.19;100.00
24031;BME280;12240;51.142;22.486;2022-12-07T06:29:48;98693.88;;;1.16;100.00
24031;BME280;12240;51.142;22.486;2022-12-07T06:32:16;98688.50;;;1.18;100.00
24031;BME280;12240;51.142;22.486;2022-12-07T06:34:44;98637.56;;;0.86;100.00
24031;BME280;12240;51.142;22.486;2022-12-07T06:37:12;98683.13;;;1.19;100.00
24031;BME280;12240;51.142;22.486;2022-12-07T06:39:40;98676.91;;;1.09;100.00
24031;BME280;12240;51.142;22.486;2022-12-07T06:42:08;98683.59;;;1.13;100.00
24031;BME280;12240;51.142;22.486;2022-12-07T06:44:36;98683.69;;;1.12;100.00
24031;BME280;12240;51.142;22.486;2022-12-07T06:47:04;98674.19;;;0.98;100.00
24031;BME280;12240;51.142;22.486;2022-12-07T06:49:52;98651.56;;;0.97;100.00
24031;BME280;12240;51.142;22.486;2022-12-07T06:52:20;98637.56;;;0.86;100.00
24031;BME280;12240;51.142;22.486;2022-12-07T06:54:48;98694.28;;;1.10;100.00
24031;BME280;12240;51.142;22.486;2022-12-07T06:57:16;98688.41;;;1.07;100.00
24031;BME280;12240;51.142;22.486;2022-12-07T06:59:44;98696.72;;;1.13;100.00
24031;BME280;12240;51.142;22.486;2022-12-07T07:02:12;98701.00;;;1.14;100.00
24031;BME280;12240;51.142;22.486;2022-12-07T07:04:40;98650.75;;;0.84;100.00
24031;BME280;12240;51.142;22.486;2022-12-07T07:07:08;98659.75;;;0.93;100.00
24031;BME280;12240;51.142;22.486;2022-12-07T07:09:36;98650.75;;;0.84;100.00
24031;BME280;12240;51.142;22.486;2022-12-07T07:12:04;98662.28;;;0.94;100.00
24031;BME280;12240;51.142;22.486;2022-12-07T07:14:32;98688.66;;;1.04;100.00
24031;BME280;12240;51.142;22.486;2022-12-07T07:17:00;98651.72;;;0.83;100.00
24031;BME280;12240;51.142;22.486;2022-12-07T07:19:29;98694.09;;;1.13;100.00
24031;BME280;12240;51.142;22.486;2022-12-07T07:21:57;98678.28;;;1.02;100.00
24031;BME280;12240;51.142;22.486;2022-12-07T07:24:24;98648.47;;;0.80;100.00
24031;BME280;12240;51.142;22.486;2022-12-07T07:26:53;98653.56;;;0.94;100.00
24031;BME280;12240;51.142;22.486;2022-12-07T07:29:21;98686.41;;;1.10;100.00
24031;BME280;12240;51.142;22.486;2022-12-07T07:31:48;98664.16;;;0.92;100.00
24031;BME280;12240;51.142;22.486;2022-12-07T07:34:16;98689.53;;;1.15;100.00
24031;BME280;12240;51.142;22.486;2022-12-07T07:36:44;98694.78;;;1.15;100.00
24031;BME280;12240;51.142;22.486;2022-12-07T07:39:12;98686.22;;;1.13;100.00
24031;BME280;12240;51.142;22.486;2022-12-07T07:41:41;98685.25;;;1.14;100.00
24031;BME280;12240;51.142;22.486;2022-12-07T07:44:13;98685.88;;;1.18;100.00
24031;BME280;12240;51.142;22.486;2022-12-07T07:46:41;98687.50;;;1.08;100.00
24031;BME280;12240;51.142;22.486;2022-12-07T07:49:10;98701.09;;;1.13;100.00
24031;BME280;12240;51.142;22.486;2022-12-07T07:51:38;98695.88;;;1.13;100.00
24031;BME280;12240;51.142;22.486;2022-12-07T07:54:06;98688.13;;;1.11;100.00
24031;BME280;12240;51.142;22.486;2022-12-07T07:56:34;98651.78;;;0.94;100.00
24031;BME280;12240;51.142;22.486;2022-12-07T07:59:03;98678.06;;;1.05;100.00
24031;BME280;12240;51.142;22.486;2022-12-07T08:01:31;98672.06;;;1.03;100.00
24031;BME280;12240;51.142;22.486;2022-12-07T08:03:59;98663.03;;;0.84;100.00
24031;BME280;12240;51.142;22.486;2022-12-07T08:06:27;98675.13;;;1.10;100.00
24031;BME280;12240;51.142;22.486;2022-12-07T08:08:59;98703.50;;;1.16;100.00
24031;BME280;12240;51.142;22.486;2022-12-07T08:11:27;98695.53;;;1.17;100.00
24031;BME280;12240;51.142;22.486;2022-12-07T08:13:55;98697.00;;;1.22;100.00
24031;BME280;12240;51.142;22.486;2022-12-07T08:16:24;98691.63;;;1.23;100.00
24031;BME280;12240;51.142;22.486;2022-12-07T08:18:52;98643.81;;;0.96;100.00
24031;BME280;12240;51.142;22.486;2022-12-07T08:21:20;98706.41;;;1.24;100.00
24031;BME280;12240;51.142;22.486;2022-12-07T08:23:48;98666.44;;;0.97;100.00
24031;BME280;12240;51.142;22.486;2022-12-07T08:26:16;98621.66;;;0.76;100.00
24031;BME280;12240;51.142;22.486;2022-12-07T08:28:46;98664.56;;;0.99;100.00
24031;BME280;12240;51.142;22.486;2022-12-07T08:31:17;98674.28;;;1.09;100.00
24031;BME280;12240;51.142;22.486;2022-12-07T08:33:47;98696.13;;;1.21;100.00
24031;BME280;12240;51.142;22.486;2022-12-07T08:36:17;98707.47;;;1.22;100.00
24031;BME280;12240;51.142;22.486;2022-12-07T08:38:45;98708.22;;;1.24;100.00
24031;BME280;12240;51.142;22.486;2022-12-07T08:41:34;98707.97;;;1.27;100.00
24031;BME280;12240;51.142;22.486;2022-12-07T08:44:02;98717.94;;;1.34;100.00
24031;BME280;12240;51.142;22.486;2022-12-07T08:46:41;98706.13;;;1.40;100.00
24031;BME280;12240;51.142;22.486;2022-12-07T08:49:34;98699.00;;;1.42;100.00
24031;BME280;12240;51.142;22.486;2022-12-07T08:52:01;98710.94;;;1.46;100.00
24031;BME280;12240;51.142;22.486;2022-12-07T08:54:35;98705.81;;;1.44;100.00
24031;BME280;12240;51.142;22.486;2022-12-07T08:57:04;98658.94;;;1.16;100.00
24031;BME280;12240;51.142;22.486;2022-12-07T08:59:35;98705.94;;;1.43;100.00
24031;BME280;12240;51.142;22.486;2022-12-07T09:02:05;98704.00;;;1.45;100.00
24031;BME280;12240;51.142;22.486;2022-12-07T09:04:33;98691.13;;;1.42;100.00
24031;BME280;12240;51.142;22.486;2022-12-07T09:07:01;98645.31;;;1.11;100.00
24031;BME280;12240;51.142;22.486;2022-12-07T09:09:30;98705.69;;;1.46;100.00
24031;BME280;12240;51.142;22.486;2022-12-07T09:11:58;98650.03;;;1.18;100.00
24031;BME280;12240;51.142;22.486;2022-12-07T09:14:26;98645.16;;;1.25;100.00
24031;BME280;12240;51.142;22.486;2022-12-07T09:16:54;98661.66;;;1.38;100.00
24031;BME280;12240;51.142;22.486;2022-12-07T09:19:22;98683.31;;;1.53;100.00
24031;BME280;12240;51.142;22.486;2022-12-07T09:21:50;98636.56;;;1.23;100.00
24031;BME280;12240;51.142;22.486;2022-12-07T09:24:18;98676.53;;;1.38;100.00
24031;BME280;12240;51.142;22.486;2022-12-07T09:26:46;98663.16;;;1.30;100.00
24031;BME280;12240;51.142;22.486;2022-12-07T09:29:14;98651.44;;;1.23;100.00
24031;BME280;12240;51.142;22.486;2022-12-07T09:31:42;98670.09;;;1.31;100.00
24031;BME280;12240;51.142;22.486;2022-12-07T09:34:10;98690.19;;;1.43;100.00
24031;BME280;12240;51.142;22.486;2022-12-07T09:36:38;98675.88;;;1.47;100.00
24031;BME280;12240;51.142;22.486;2022-12-07T09:39:06;98673.50;;;1.44;100.00
24031;BME280;12240;51.142;22.486;2022-12-07T09:41:39;98679.22;;;1.49;100.00
24031;BME280;12240;51.142;22.486;2022-12-07T09:44:23;98664.44;;;1.48;100.00
24031;BME280;12240;51.142;22.486;2022-12-07T09:46:51;98691.69;;;1.58;100.00
24031;BME280;12240;51.142;22.486;2022-12-07T09:49:23;98683.56;;;1.61;100.00
24031;BME280;12240;51.142;22.486;2022-12-07T09:54:39;98631.03;;;1.39;100.00
24031;BME280;12240;51.142;22.486;2022-12-07T09:57:11;98625.84;;;1.26;100.00
24031;BME280;12240;51.142;22.486;2022-12-07T09:59:42;98678.44;;;1.59;100.00
24031;BME280;12240;51.142;22.486;2022-12-07T10:02:38;98678.19;;;1.51;100.00
24031;BME280;12240;51.142;22.486;2022-12-07T10:05:16;98635.16;;;1.30;100.00
24031;BME280;12240;51.142;22.486;2022-12-07T10:07:50;98682.13;;;1.57;100.00
24031;BME280;12240;51.142;22.486;2022-12-07T10:10:31;98650.22;;;1.39;100.00
24031;BME280;12240;51.142;22.486;2022-12-07T10:13:11;98635.03;;;1.32;100.00
24031;BME280;12240;51.142;22.486;2022-12-07T10:15:57;98681.19;;;1.58;100.00
24031;BME280;12240;51.142;22.486;2022-12-07T10:18:36;98682.41;;;1.65;100.00
24031;BME280;12240;51.142;22.486;2022-12-07T10:21:23;98696.94;;;1.58;100.00
24031;BME280;12240;51.142;22.486;2022-12-07T10:29:32;98690.47;;;1.62;100.00
24031;BME280;12240;51.142;22.486;2022-12-07T10:32:27;98644.75;;;1.42;100.00
24031;BME280;12240;51.142;22.486;2022-12-07T10:35:24;98691.00;;;1.67;100.00
24031;BME280;12240;51.142;22.486;2022-12-07T10:37:56;98689.31;;;1.66;100.00
24031;BME280;12240;51.142;22.486;2022-12-07T10:40:35;98625.41;;;1.32;100.00
24031;BME280;12240;51.142;22.486;2022-12-07T10:49:03;98698.41;;;1.73;100.00
24031;BME280;12240;51.142;22.486;2022-12-07T10:57:56;98690.41;;;1.74;100.00
24031;BME280;12240;51.142;22.486;2022-12-07T11:00:40;98690.19;;;1.77;100.00
24031;BME280;12240;51.142;22.486;2022-12-07T11:10:02;98645.00;;;1.50;100.00
24031;BME280;12240;51.142;22.486;2022-12-07T11:21:30;98692.72;;;1.79;100.00
24031;BME280;12240;51.142;22.486;2022-12-07T11:24:22;98679.59;;;1.79;100.00
24031;BME280;12240;51.142;22.486;2022-12-07T11:27:05;98673.25;;;1.70;100.00
24031;BME280;12240;51.142;22.486;2022-12-07T11:33:15;98680.75;;;1.75;100.00
24031;BME280;12240;51.142;22.486;2022-12-07T11:41:41;98634.09;;;1.67;100.00
24031;BME280;12240;51.142;22.486;2022-12-07T11:47:16;98670.06;;;1.89;100.00
24031;BME280;12240;51.142;22.486;2022-12-07T11:55:51;98688.81;;;1.95;100.00
24031;BME280;12240;51.142;22.486;2022-12-07T12:00:53;98561.47;;;1.22;100.00
24031;BME280;12240;51.142;22.486;2022-12-07T12:03:30;98619.38;;;1.43;100.00
24031;BME280;12240;51.142;22.486;2022-12-07T12:06:01;98687.38;;;1.91;100.00
24031;BME280;12240;51.142;22.486;2022-12-07T12:08:32;98634.81;;;1.58;100.00
24031;BME280;12240;51.142;22.486;2022-12-07T12:15:27;98682.13;;;1.91;100.00
24031;BME280;12240;51.142;22.486;2022-12-07T12:18:38;98687.03;;;1.96;100.00
24031;BME280;12240;51.142;22.486;2022-12-07T12:21:11;98646.75;;;1.73;100.00
24031;BME280;12240;51.142;22.486;2022-12-07T12:23:54;98683.00;;;2.03;100.00
24031;BME280;12240;51.142;22.486;2022-12-07T12:26:27;98656.59;;;1.82;100.00
24031;BME280;12240;51.142;22.486;2022-12-07T12:29:26;98687.03;;;1.96;100.00
24031;BME280;12240;51.142;22.486;2022-12-07T12:32:15;98680.94;;;1.95;100.00
24031;BME280;12240;51.142;22.486;2022-12-07T12:37:45;98679.16;;;1.96;100.00
24031;BME280;12240;51.142;22.486;2022-12-07T12:45:20;98652.06;;;1.95;100.00
24031;BME280;12240;51.142;22.486;2022-12-07T12:48:02;98667.13;;;2.04;100.00
24031;BME280;12240;51.142;22.486;2022-12-07T12:50:35;98667.72;;;2.08;100.00
24031;BME280;12240;51.142;22.486;2022-12-07T12:53:24;98657.91;;;1.99;100.00
24031;BME280;12240;51.142;22.486;2022-12-07T12:56:25;98674.59;;;1.98;100.00
24031;BME280;12240;51.142;22.486;2022-12-07T13:04:49;98705.19;;;1.99;100.00
24031;BME280;12240;51.142;22.486;2022-12-07T13:23:59;98685.94;;;1.87;100.00
24031;BME280;12240;51.142;22.486;2022-12-07T13:29:13;98650.69;;;1.68;100.00
24031;BME280;12240;51.142;22.486;2022-12-07T13:31:57;98672.78;;;1.76;100.00
24031;BME280;12240;51.142;22.486;2022-12-07T13:34:38;98682.47;;;1.87;100.00
24031;BME280;12240;51.142;22.486;2022-12-07T13:37:16;98691.28;;;1.86;100.00
24031;BME280;12240;51.142;22.486;2022-12-07T13:39:54;98680.78;;;1.86;100.00
24031;BME280;12240;51.142;22.486;2022-12-07T13:42:29;98671.72;;;1.79;100.00
24031;BME280;12240;51.142;22.486;2022-12-07T13:45:00;98648.72;;;1.59;100.00
24031;BME280;12240;51.142;22.486;2022-12-07T13:47:46;98676.00;;;1.80;100.00
24031;BME280;12240;51.142;22.486;2022-12-07T13:50:31;98682.22;;;1.79;100.00
24031;BME280;12240;51.142;22.486;2022-12-07T13:53:01;98686.75;;;1.77;100.00
24031;BME280;12240;51.142;22.486;2022-12-07T13:55:29;98685.16;;;1.74;100.00
24031;BME280;12240;51.142;22.486;2022-12-07T13:57:57;98688.53;;;1.76;100.00
24031;BME280;12240;51.142;22.486;2022-12-07T14:00:28;98637.38;;;1.47;100.00
24031;BME280;12240;51.142;22.486;2022-12-07T14:03:04;98679.19;;;1.72;100.00
24031;BME280;12240;51.142;22.486;2022-12-07T14:06:22;98682.16;;;1.68;100.00
24031;BME280;12240;51.142;22.486;2022-12-07T14:09:21;98632.47;;;1.43;100.00
24031;BME280;12240;51.142;22.486;2022-12-07T14:11:53;98676.53;;;1.61;100.00
24031;BME280;12240;51.142;22.486;2022-12-07T14:14:30;98677.47;;;1.60;100.00
24031;BME280;12240;51.142;22.486;2022-12-07T14:17:19;98653.00;;;1.49;100.00
24031;BME280;12240;51.142;22.486;2022-12-07T14:19:52;98671.19;;;1.63;100.00
24031;BME280;12240;51.142;22.486;2022-12-07T14:22:27;98668.06;;;1.58;100.00
24031;BME280;12240;51.142;22.486;2022-12-07T14:25:17;98646.03;;;1.37;100.00
24031;BME280;12240;51.142;22.486;2022-12-07T14:27:58;98692.41;;;1.60;100.00
24031;BME280;12240;51.142;22.486;2022-12-07T14:30:32;98696.34;;;1.65;100.00
24031;BME280;12240;51.142;22.486;2022-12-07T14:33:04;98644.88;;;1.41;100.00
24031;BME280;12240;51.142;22.486;2022-12-07T14:35:32;98679.16;;;1.61;100.00
24031;BME280;12240;51.142;22.486;2022-12-07T14:38:00;98562.25;;;0.88;100.00
24031;BME280;12240;51.142;22.486;2022-12-07T14:40:29;98680.94;;;1.61;100.00
24031;BME280;12240;51.142;22.486;2022-12-07T14:43:05;98698.88;;;1.67;100.00
24031;BME280;12240;51.142;22.486;2022-12-07T14:45:34;98652.34;;;1.34;100.00
24031;BME280;12240;51.142;22.486;2022-12-07T14:48:03;98688.81;;;1.61;100.00
24031;BME280;12240;51.142;22.486;2022-12-07T14:50:52;98678.31;;;1.61;100.00
24031;BME280;12240;51.142;22.486;2022-12-07T14:53:48;98676.25;;;1.53;100.00
24031;BME280;12240;51.142;22.486;2022-12-07T14:56:25;98667.06;;;1.48;100.00
24031;BME280;12240;51.142;22.486;2022-12-07T14:58:53;98655.13;;;1.44;100.00
24031;BME280;12240;51.142;22.486;2022-12-07T15:01:21;98659.22;;;1.48;100.00
24031;BME280;12240;51.142;22.486;2022-12-07T15:03:49;98691.00;;;1.67;100.00
24031;BME280;12240;51.142;22.486;2022-12-07T15:06:18;98624.91;;;1.27;100.00
24031;BME280;12240;51.142;22.486;2022-12-07T15:08:46;98683.00;;;1.68;100.00
24031;BME280;12240;51.142;22.486;2022-12-07T15:11:16;98661.72;;;1.49;100.00
24031;BME280;12240;51.142;22.486;2022-12-07T15:13:44;98661.34;;;1.54;100.00
24031;BME280;12240;51.142;22.486;2022-12-07T15:16:31;98646.09;;;1.48;100.00
24031;BME280;12240;51.142;22.486;2022-12-07T15:19:23;98689.38;;;1.77;100.00
24031;BME280;12240;51.142;22.486;2022-12-07T15:21:56;98684.22;;;1.75;100.00
24031;BME280;12240;51.142;22.486;2022-12-07T15:24:25;98675.63;;;1.73;100.00
24031;BME280;12240;51.142;22.486;2022-12-07T15:26:54;98642.25;;;1.52;100.00
24031;BME280;12240;51.142;22.486;2022-12-07T15:29:22;98686.00;;;1.75;100.00
24031;BME280;12240;51.142;22.486;2022-12-07T15:31:51;98685.41;;;1.71;100.00
24031;BME280;12240;51.142;22.486;2022-12-07T15:34:25;98658.50;;;1.57;100.00
24031;BME280;12240;51.142;22.486;2022-12-07T15:37:06;98653.50;;;1.54;100.00
24031;BME280;12240;51.142;22.486;2022-12-07T15:39:36;98652.56;;;1.55;100.00